createdAt,value
2023-02-04T00:00:35.102Z,3.25
2023-02-04T00:05:26.099Z,2.47
2023-02-04T00:10:20.367Z,2.83
2023-02-04T00:15:13.889Z,3.38
2023-02-04T00:20:11.644Z,3.30
2023-02-04T00:25:02.526Z,2.50
2023-02-04T00:29:55.844Z,3.20
2023-02-04T00:34:50.562Z,3.85
2023-02-04T00:39:44.856Z,4.80
2023-02-04T00:44:37.519Z,4.17
2023-02-04T00:49:29.999Z,4.73
2023-02-04T00:54:20.084Z,5.55
2023-02-04T00:59:13.102Z,5.30
2023-02-04T01:04:07.748Z,5.82
2023-02-04T01:08:58.512Z,5.95
2023-02-04T01:13:53.456Z,5.40
2023-02-04T01:18:50.148Z,5.13
2023-02-04T01:23:42.508Z,5.13
2023-02-04T01:28:34.506Z,5.55
2023-02-04T01:33:26.428Z,5.80
2023-02-04T01:38:22.316Z,5.25
2023-02-04T01:43:13.974Z,5.72
2023-02-04T01:48:06.199Z,6.05
2023-02-04T01:53:02.945Z,6.30
2023-02-04T01:57:59.193Z,5.53
2023-02-04T02:02:53.817Z,6.90
2023-02-04T02:07:49.027Z,6.87
2023-02-04T02:12:42.201Z,7.07
2023-02-04T02:17:36.770Z,7.10
2023-02-04T02:22:32.790Z,8.15
2023-02-04T02:27:27.329Z,8.13
2023-02-04T02:32:22.882Z,9.05
2023-02-04T02:37:18.333Z,8.18
2023-02-04T02:42:08.276Z,8.25
2023-02-04T02:47:03.018Z,7.57
2023-02-04T02:51:56.128Z,8.67
2023-02-04T02:56:48.354Z,7.95
2023-02-04T03:01:40.021Z,8.13
2023-02-04T03:06:34.980Z,8.15
2023-02-04T03:11:28.253Z,7.55
2023-02-04T03:16:20.025Z,8.27
2023-02-04T03:21:14.864Z,8.90
2023-02-04T03:26:11.278Z,8.52
2023-02-04T03:31:03.635Z,9.02
2023-02-04T03:35:54.312Z,9.07
2023-02-04T03:40:44.333Z,7.15
2023-02-04T03:45:45.005Z,6.83
2023-02-04T03:50:37.264Z,7.53
2023-02-04T03:55:30.368Z,7.28
2023-02-04T04:00:21.997Z,7.20
2023-02-04T04:05:15.815Z,7.70
2023-02-04T04:10:07.700Z,7.40
2023-02-04T04:15:00.340Z,7.40
2023-02-04T04:19:51.563Z,5.95
2023-02-04T04:24:45.915Z,5.43
2023-02-04T04:29:39.102Z,5.57
2023-02-04T04:34:29.818Z,5.57
2023-02-04T04:39:20.181Z,5.97
2023-02-04T04:44:12.688Z,5.73
2023-02-04T04:49:02.973Z,5.93
2023-02-04T04:53:54.563Z,4.93
2023-02-04T04:58:45.423Z,4.68
2023-02-04T05:03:41.241Z,4.87
2023-02-04T05:08:34.461Z,5.72
2023-02-04T05:13:26.325Z,4.20
2023-02-04T05:18:18.477Z,5.32
2023-02-04T05:23:14.837Z,5.87
2023-02-04T05:28:05.833Z,7.17
2023-02-04T05:33:00.534Z,7.75
2023-02-04T05:37:52.035Z,11.02
2023-02-04T05:42:46.854Z,12.18
2023-02-04T05:47:36.820Z,11.38
2023-02-04T05:52:29.597Z,12.38
2023-02-04T05:57:19.383Z,12.35
2023-02-04T06:02:12.720Z,13.00
2023-02-04T06:07:04.074Z,13.15
2023-02-04T06:11:58.039Z,13.55
2023-02-04T06:16:50.036Z,12.53
2023-02-04T06:21:43.099Z,12.10
2023-02-04T06:26:38.941Z,12.60
2023-02-04T06:31:33.283Z,12.80
2023-02-04T06:36:25.227Z,12.18
2023-02-04T06:41:20.405Z,11.98
2023-02-04T06:46:11.368Z,11.68
2023-02-04T06:51:01.880Z,12.43
2023-02-04T06:55:52.858Z,12.38
2023-02-04T07:00:45.748Z,13.80
2023-02-04T07:05:37.802Z,14.57
2023-02-04T07:10:33.730Z,14.77
2023-02-04T07:15:31.454Z,15.80
2023-02-04T07:20:27.551Z,16.20
2023-02-04T07:25:22.520Z,16.87
2023-02-04T07:30:15.601Z,16.08
2023-02-04T07:35:09.542Z,18.25
2023-02-04T07:40:03.057Z,18.27
2023-02-04T07:44:53.480Z,18.95
2023-02-04T07:49:43.565Z,20.25
2023-02-04T07:54:35.013Z,19.20
2023-02-04T07:59:31.565Z,19.30
2023-02-04T08:04:23.634Z,19.33
2023-02-04T08:09:15.531Z,18.60
2023-02-04T08:14:12.074Z,18.55
2023-02-04T08:19:07.420Z,17.38
2023-02-04T08:24:01.111Z,18.27
2023-02-04T08:28:53.341Z,18.20
2023-02-04T08:33:47.940Z,17.67
2023-02-04T08:38:41.697Z,17.33
2023-02-04T08:43:31.842Z,16.88
2023-02-04T08:48:22.603Z,16.52
2023-02-04T08:53:13.199Z,16.40
2023-02-04T08:58:06.433Z,16.37
2023-02-04T09:02:57.544Z,16.63
2023-02-04T09:07:53.000Z,17.00
2023-02-04T09:12:44.354Z,15.60
2023-02-04T09:17:39.928Z,15.63
2023-02-04T09:22:31.914Z,20.77
2023-02-04T09:27:23.253Z,19.75
2023-02-04T09:32:14.290Z,15.30
2023-02-04T09:37:09.240Z,14.57
2023-02-04T09:42:02.999Z,12.63
2023-02-04T09:46:55.670Z,10.38
2023-02-04T09:51:49.507Z,9.75
2023-02-04T09:56:43.137Z,8.45
2023-02-04T10:01:40.085Z,7.45
2023-02-04T10:06:33.108Z,8.70
2023-02-04T10:11:28.068Z,9.02
2023-02-04T10:16:30.346Z,8.07
2023-02-04T10:21:25.115Z,7.53
2023-02-04T10:26:18.020Z,6.93
2023-02-04T10:31:11.224Z,5.25
2023-02-04T10:36:07.818Z,4.53
2023-02-04T10:41:06.179Z,4.00
2023-02-04T10:46:05.095Z,5.00
2023-02-04T10:51:00.549Z,5.53
2023-02-04T10:55:54.301Z,5.15
2023-02-04T11:00:48.593Z,5.93
2023-02-04T11:05:42.734Z,5.88
2023-02-04T11:10:36.068Z,4.72
2023-02-04T11:16:14.131Z,5.32
2023-02-04T11:21:06.350Z,4.72
2023-02-04T11:26:08.284Z,4.33
2023-02-04T11:31:17.840Z,4.15
2023-02-04T11:36:17.933Z,3.95
2023-02-04T11:41:19.391Z,3.42
2023-02-04T11:46:18.943Z,5.05
2023-02-04T11:51:19.411Z,5.07
2023-02-04T11:56:09.505Z,5.30
2023-02-04T12:00:59.640Z,5.80
2023-02-04T12:05:56.382Z,7.77
2023-02-04T12:10:57.627Z,6.87
2023-02-04T12:16:07.739Z,6.20
2023-02-04T12:21:05.182Z,5.90
2023-02-04T12:25:57.747Z,5.47
2023-02-04T12:30:48.249Z,4.65
2023-02-04T12:35:39.054Z,3.63
2023-02-04T12:40:31.696Z,4.65
2023-02-04T12:45:22.981Z,3.60
2023-02-04T12:50:15.509Z,4.38
2023-02-04T12:55:11.480Z,3.38
2023-02-04T13:00:11.564Z,2.83
2023-02-04T13:05:10.234Z,2.15
2023-02-04T13:10:03.031Z,1.52
2023-02-04T13:14:54.424Z,2.07
2023-02-04T13:19:47.830Z,1.70
2023-02-04T13:24:38.088Z,4.18
2023-02-04T13:29:28.640Z,5.90
2023-02-04T13:34:20.007Z,4.03
2023-02-04T13:39:15.256Z,2.95
2023-02-04T13:44:07.510Z,1.65
2023-02-04T13:48:59.046Z,1.83
2023-02-04T13:53:53.914Z,0.90
2023-02-04T13:58:48.272Z,0.80
2023-02-04T14:03:43.811Z,0.80
2023-02-04T14:08:39.413Z,0.63
2023-02-04T14:13:38.934Z,0.63
2023-02-04T14:18:31.907Z,0.50
2023-02-04T14:23:25.132Z,0.80
2023-02-04T14:28:21.431Z,0.88
2023-02-04T14:33:14.106Z,0.60
2023-02-04T14:38:12.884Z,0.50
2023-02-04T14:43:07.494Z,0.70
2023-02-04T14:48:03.033Z,0.60
2023-02-04T14:52:55.793Z,0.80
2023-02-04T14:57:50.505Z,1.10
2023-02-04T15:02:45.049Z,1.10
2023-02-04T15:07:35.805Z,0.88
2023-02-04T15:12:29.297Z,1.15
2023-02-04T15:17:30.321Z,1.23
2023-02-04T15:22:24.451Z,1.42
2023-02-04T15:27:15.652Z,1.30
2023-02-04T15:32:16.273Z,1.45
2023-02-04T15:37:11.559Z,10.82
2023-02-04T15:42:06.198Z,2.17
2023-02-04T15:46:59.417Z,1.83
2023-02-04T15:51:52.420Z,2.20
2023-02-04T15:56:45.136Z,1.80
2023-02-04T16:01:42.974Z,2.38
2023-02-04T16:06:37.167Z,1.77
2023-02-04T16:11:29.206Z,2.90
2023-02-04T16:16:24.261Z,2.53
2023-02-04T16:21:16.296Z,2.83
2023-02-04T16:26:09.591Z,3.80
2023-02-04T16:31:00.911Z,4.95
2023-02-04T16:36:05.305Z,5.53
2023-02-04T16:40:55.603Z,7.13
2023-02-04T16:45:49.516Z,11.80
2023-02-04T16:50:41.590Z,9.65
2023-02-04T16:55:36.063Z,12.55
2023-02-04T17:00:28.242Z,21.98
2023-02-04T17:05:20.057Z,16.00
2023-02-04T17:10:15.722Z,16.58
2023-02-04T17:15:14.800Z,16.90
2023-02-04T17:20:06.080Z,19.73
2023-02-04T17:24:56.663Z,20.33
2023-02-04T17:29:46.787Z,21.23
2023-02-04T17:34:39.680Z,21.50
2023-02-04T17:39:30.671Z,20.85
2023-02-04T17:44:25.299Z,22.37
2023-02-04T17:49:17.840Z,22.33
2023-02-04T17:54:13.955Z,24.02
2023-02-04T17:59:05.426Z,24.52
2023-02-04T18:03:59.503Z,24.60
2023-02-04T18:08:53.119Z,25.77
2023-02-04T18:13:47.490Z,24.67
2023-02-04T18:18:40.566Z,22.30
2023-02-04T18:23:33.724Z,23.52
2023-02-04T18:28:24.883Z,22.05
2023-02-04T18:33:23.920Z,21.43
2023-02-04T18:38:39.899Z,20.67
2023-02-04T18:43:32.205Z,19.83
2023-02-04T18:48:59.398Z,20.38
2023-02-04T18:53:53.465Z,20.80
2023-02-04T18:58:50.933Z,20.85
2023-02-04T19:03:50.397Z,20.67
2023-02-04T19:08:48.273Z,21.70
2023-02-04T19:14:31.733Z,22.57
2023-02-04T19:19:57.699Z,22.02
2023-02-04T19:24:54.702Z,21.73
2023-02-04T19:30:01.280Z,20.80
2023-02-04T19:34:55.005Z,22.23
2023-02-04T19:39:46.489Z,24.45
2023-02-04T19:44:49.570Z,31.70
2023-02-04T19:49:43.458Z,36.00
2023-02-04T19:54:43.680Z,37.13
2023-02-04T19:59:39.885Z,35.00
2023-02-04T20:04:40.104Z,35.10
2023-02-04T20:09:37.402Z,33.63
2023-02-04T20:14:32.569Z,34.17
2023-02-04T20:19:27.519Z,35.58
2023-02-04T20:24:20.574Z,33.40
2023-02-04T20:29:27.116Z,34.13
2023-02-04T20:34:28.322Z,30.55
2023-02-04T20:39:40.502Z,31.52
2023-02-04T20:44:47.175Z,29.20
2023-02-04T20:49:46.492Z,28.80
2023-02-04T20:54:36.750Z,30.60
2023-02-04T20:59:36.662Z,30.40
2023-02-04T21:04:33.588Z,32.05
2023-02-04T21:09:27.092Z,31.65
2023-02-04T21:14:18.177Z,32.20
2023-02-04T21:19:12.150Z,31.10
2023-02-04T21:24:04.568Z,33.05
2023-02-04T21:28:59.907Z,32.10
2023-02-04T21:33:53.982Z,32.42
2023-02-04T21:38:49.832Z,32.25
2023-02-04T21:43:58.293Z,31.92
2023-02-04T21:48:51.049Z,31.15
2023-02-04T21:53:43.950Z,32.78
2023-02-04T21:58:38.822Z,31.70
2023-02-04T22:03:30.162Z,31.73
2023-02-04T22:08:21.744Z,30.40
2023-02-04T22:13:15.740Z,30.67
2023-02-04T22:18:13.624Z,29.17
2023-02-04T22:23:06.242Z,27.25
2023-02-04T22:27:57.626Z,25.80
2023-02-04T22:32:51.751Z,25.92
2023-02-04T22:37:46.098Z,24.90
2023-02-04T22:42:37.375Z,23.80
2023-02-04T22:47:28.877Z,24.10
2023-02-04T22:52:25.146Z,23.52
2023-02-04T22:57:21.368Z,23.27
2023-02-04T23:02:15.322Z,24.58
2023-02-04T23:07:08.855Z,24.70
2023-02-04T23:12:13.072Z,26.05
2023-02-04T23:17:06.850Z,26.83
2023-02-04T23:21:58.367Z,25.97
2023-02-04T23:26:49.705Z,26.65
2023-02-04T23:31:40.596Z,27.57
2023-02-04T23:36:39.756Z,29.45
2023-02-04T23:41:30.845Z,29.53
2023-02-04T23:46:24.802Z,29.13
2023-02-04T23:51:16.416Z,30.25
2023-02-04T23:56:10.929Z,29.33
